Time;durP1;ratioP1;P1;durP2;ratioP2;P2;SDS_P1;SDS_P2;PMS_P1;PMS_P2;Temp;Humidity;BMP_temperature;BMP_pressure;BME280_temperature;BME280_humidity;BME280_pressure;Samples;Min_cycle;Max_cycle;Signal;HPM_P1;HPM_P2
2022/12/09 00:01:48;;;;;;;40.07;24.03;;;4.70;99.10;;;;;;5091890;28;20051;-80
2022/12/09 00:04:14;;;;;;;41.37;23.93;;;4.70;99.10;;;;;;5091852;28;20016;-81
2022/12/09 00:06:39;;;;;;;40.87;22.80;;;4.70;99.10;;;;;;5093070;28;20027;-80
2022/12/09 00:09:05;;;;;;;35.23;20.50;;;4.70;99.10;;;;;;5093150;28;20032;-80
2022/12/09 00:11:31;;;;;;;40.17;22.67;;;4.80;99.10;;;;;;5091968;28;20066;-80
2022/12/09 00:13:58;;;;;;;39.20;23.03;;;4.70;99.10;;;;;;5092940;28;20117;-80
2022/12/09 00:16:24;;;;;;;39.53;24.30;;;4.70;99.10;;;;;;5093041;28;20028;-80
2022/12/09 00:18:51;;;;;;;39.90;23.17;;;4.70;99.10;;;;;;5093003;28;20028;-79
2022/12/09 00:21:25;;;;;;;36.90;22.83;;;4.80;99.10;;;;;;5091718;28;20484;-80
2022/12/09 00:23:52;;;;;;;37.23;22.13;;;4.80;99.00;;;;;;5092996;28;20069;-75
2022/12/09 00:26:20;;;;;;;39.17;22.83;;;4.70;99.00;;;;;;5092977;28;20016;-76
2022/12/09 00:28:47;;;;;;;39.60;23.93;;;4.70;99.00;;;;;;5092957;28;20360;-76
2022/12/09 00:31:14;;;;;;;39.33;23.67;;;4.80;99.00;;;;;;5092939;28;20214;-76
2022/12/09 00:33:40;;;;;;;36.50;22.03;;;4.70;99.00;;;;;;5092886;28;20051;-76
2022/12/09 00:36:13;;;;;;;39.60;22.80;;;4.70;99.00;;;;;;5093817;28;20032;-76
2022/12/09 00:38:39;;;;;;;35.47;22.30;;;4.70;98.90;;;;;;5095567;28;20392;-76
2022/12/09 00:41:05;;;;;;;36.53;22.10;;;4.70;99.00;;;;;;5096680;28;20028;-76
2022/12/09 00:43:31;;;;;;;35.00;20.67;;;4.70;98.90;;;;;;5095465;28;20028;-76
2022/12/09 00:45:57;;;;;;;38.67;20.77;;;4.80;98.90;;;;;;5096572;28;20016;-75
2022/12/09 00:48:22;;;;;;;38.73;22.87;;;4.70;98.90;;;;;;5095045;28;20127;-76
2022/12/09 00:50:48;;;;;;;35.47;21.63;;;4.70;98.90;;;;;;5096691;28;20063;-76
2022/12/09 00:53:14;;;;;;;37.07;21.23;;;4.70;98.90;;;;;;5095334;28;20028;-75
2022/12/09 00:55:40;;;;;;;39.10;21.97;;;4.60;98.90;;;;;;5095241;28;20021;-76
2022/12/09 00:58:06;;;;;;;36.27;22.00;;;4.80;98.90;;;;;;5095261;28;20380;-75
2022/12/09 01:00:31;;;;;;;42.73;22.83;;;4.90;98.90;;;;;;5095129;28;20033;-75
2022/12/09 01:02:57;;;;;;;37.93;21.57;;;4.80;98.90;;;;;;5095106;28;20103;-76
2022/12/09 01:05:23;;;;;;;34.63;20.73;;;4.80;98.80;;;;;;5096348;28;20024;-75
2022/12/09 01:07:49;;;;;;;40.73;22.20;;;4.80;98.70;;;;;;5096316;28;20031;-75
2022/12/09 01:10:14;;;;;;;35.53;20.83;;;4.80;98.60;;;;;;5096215;28;20032;-75
2022/12/09 01:12:40;;;;;;;36.60;20.80;;;4.90;98.60;;;;;;5078013;28;20115;-75
2022/12/09 01:15:07;;;;;;;39.83;22.10;;;4.80;98.50;;;;;;5094980;28;20028;-75
2022/12/09 01:17:32;;;;;;;35.63;20.53;;;4.90;98.50;;;;;;5096030;28;20122;-75
2022/12/09 01:19:58;;;;;;;36.37;21.43;;;4.80;98.40;;;;;;5077896;28;20040;-76
2022/12/09 01:22:27;;;;;;;38.00;21.17;;;4.80;98.40;;;;;;5094774;28;20031;-75
2022/12/09 01:24:52;;;;;;;37.53;21.97;;;4.80;98.40;;;;;;5094711;28;20024;-75
2022/12/09 01:27:18;;;;;;;37.30;20.83;;;4.80;98.40;;;;;;5094751;28;20028;-75
2022/12/09 01:29:44;;;;;;;38.03;22.63;;;4.80;98.40;;;;;;5094670;28;20050;-76
2022/12/09 01:32:09;;;;;;;36.00;22.00;;;4.80;98.40;;;;;;5095829;28;20024;-75
2022/12/09 01:34:35;;;;;;;39.80;23.00;;;4.80;98.40;;;;;;5094564;28;20031;-75
2022/12/09 01:37:00;;;;;;;42.13;23.13;;;4.80;98.40;;;;;;5095809;28;20028;-76
2022/12/09 01:39:26;;;;;;;40.20;22.10;;;4.80;98.40;;;;;;5095746;28;20028;-75
2022/12/09 01:41:52;;;;;;;38.30;20.60;;;4.80;98.40;;;;;;5094254;28;20543;-76
2022/12/09 01:44:23;;;;;;;39.33;21.30;;;4.80;98.40;;;;;;5094473;28;20024;-76
2022/12/09 01:46:56;;;;;;;36.57;20.60;;;4.80;98.40;;;;;;5093425;28;20012;-75
2022/12/09 01:49:33;;;;;;;39.85;22.55;;;4.80;98.40;;;;;;5095571;28;20043;-75
2022/12/09 01:52:08;;;;;;;37.33;20.73;;;4.80;98.40;;;;;;5095651;28;20028;-75
2022/12/09 01:54:34;;;;;;;38.80;20.63;;;4.80;98.40;;;;;;5095629;28;20024;-75
2022/12/09 01:57:00;;;;;;;38.10;21.67;;;4.80;98.40;;;;;;5094362;28;20373;-75
2022/12/09 01:59:27;;;;;;;39.20;21.37;;;4.80;98.40;;;;;;5095136;28;20031;-75
2022/12/09 02:01:57;;;;;;;41.73;23.47;;;4.80;98.40;;;;;;5094065;28;20539;-75
2022/12/09 02:04:23;;;;;;;40.57;21.73;;;4.80;98.40;;;;;;5095233;28;20077;-76
2022/12/09 02:06:49;;;;;;;39.83;24.00;;;4.80;98.40;;;;;;5094088;28;20032;-75
2022/12/09 02:09:14;;;;;;;38.83;22.63;;;4.90;98.40;;;;;;5095174;28;20420;-76
2022/12/09 02:11:47;;;;;;;42.60;23.70;;;4.80;98.40;;;;;;5095239;28;20051;-76
2022/12/09 02:14:30;;;;;;;39.73;22.60;;;4.80;98.40;;;;;;5095038;28;20107;-75
2022/12/09 02:17:12;;;;;;;41.80;23.90;;;4.80;98.40;;;;;;5095038;28;20490;-75
2022/12/09 02:19:47;;;;;;;39.33;23.13;;;4.80;98.40;;;;;;5093579;28;20047;-75
2022/12/09 02:22:17;;;;;;;39.20;23.47;;;4.80;98.70;;;;;;5094679;28;20028;-75
2022/12/09 02:25:00;;;;;;;44.40;25.30;;;4.80;98.50;;;;;;5094790;28;20048;-75
2022/12/09 02:27:29;;;;;;;44.00;25.13;;;4.80;98.50;;;;;;5094808;28;20052;-74
2022/12/09 02:30:15;;;;;;;41.23;24.53;;;4.80;98.40;;;;;;5093413;28;20442;-74
2022/12/09 02:32:49;;;;;;;39.67;24.10;;;4.80;98.40;;;;;;5093384;28;20514;-76
2022/12/09 02:35:41;;;;;;;44.08;23.83;;;4.80;98.40;;;;;;5092916;28;20024;-76
2022/12/09 02:38:15;;;;;;;45.70;25.13;;;4.80;98.40;;;;;;5089786;28;20062;-76
2022/12/09 02:40:54;;;;;;;38.53;23.77;;;4.80;98.40;;;;;;5093192;28;20058;-76
2022/12/09 02:43:24;;;;;;;41.40;25.00;;;4.80;98.30;;;;;;5093277;28;20032;-76
2022/12/09 02:45:52;;;;;;;41.03;24.47;;;4.80;98.30;;;;;;5093108;28;20042;-76
2022/12/09 02:48:21;;;;;;;38.77;22.93;;;4.80;98.20;;;;;;5094259;28;20546;-76
2022/12/09 02:50:48;;;;;;;37.70;23.20;;;4.80;98.20;;;;;;5093111;28;20035;-76
2022/12/09 02:53:14;;;;;;;43.53;23.80;;;4.80;98.20;;;;;;5076235;28;20056;-75
2022/12/09 02:55:44;;;;;;;41.17;23.60;;;4.80;98.20;;;;;;5093043;28;20032;-75
2022/12/09 02:58:09;;;;;;;38.70;22.27;;;4.80;98.20;;;;;;5092829;28;20430;-76
2022/12/09 03:00:36;;;;;;;41.00;23.50;;;4.80;98.10;;;;;;5075844;28;20036;-76
2022/12/09 03:03:05;;;;;;;38.33;22.27;;;4.70;98.10;;;;;;5092995;28;20035;-75
2022/12/09 03:05:46;;;;;;;35.93;21.10;;;4.70;98.10;;;;;;5092845;28;20115;-76
2022/12/09 03:08:21;;;;;;;39.60;21.03;;;4.70;98.10;;;;;;5092686;28;20121;-81
2022/12/09 03:10:56;;;;;;;;;;;4.60;98.10;;;;;;5093230;28;20078;-81
2022/12/09 03:13:41;;;;;;;35.40;20.10;;;4.70;98.10;;;;;;5092766;28;19911;-80
2022/12/09 03:16:15;;;;;;;38.33;21.13;;;4.70;98.00;;;;;;5092700;28;20043;-81
2022/12/09 03:18:46;;;;;;;37.23;20.83;;;4.70;98.00;;;;;;5094041;28;20028;-81
2022/12/09 03:21:15;;;;;;;39.97;22.27;;;4.70;97.90;;;;;;5092459;28;20088;-81
2022/12/09 03:23:44;;;;;;;38.07;20.93;;;4.70;97.90;;;;;;5093871;28;20024;-80
2022/12/09 03:26:11;;;;;;;41.80;22.93;;;4.60;97.90;;;;;;5093863;28;20094;-80
2022/12/09 03:28:46;;;;;;;38.87;22.83;;;4.60;97.80;;;;;;5093692;28;20066;-80
2022/12/09 03:31:16;;;;;;;39.63;22.90;;;4.60;97.80;;;;;;5093565;28;20028;-80
2022/12/09 03:33:43;;;;;;;41.87;21.80;;;4.60;97.70;;;;;;5093641;28;20490;-80
2022/12/09 03:36:12;;;;;;;39.13;21.73;;;4.60;97.70;;;;;;5093642;28;20115;-80
2022/12/09 03:38:40;;;;;;;39.57;22.83;;;4.50;97.70;;;;;;5085240;28;20082;-80
2022/12/09 03:41:22;;;;;;;40.93;22.37;;;4.50;97.70;;;;;;5071009;28;20027;-80
2022/12/09 03:43:54;;;;;;;39.17;20.20;;;4.50;97.80;;;;;;5071372;28;20024;-79
2022/12/09 03:46:21;;;;;;;37.17;21.37;;;4.50;97.80;;;;;;5071875;28;20021;-80
2022/12/09 03:48:47;;;;;;;38.80;19.83;;;4.50;97.80;;;;;;5073007;28;20552;-80
2022/12/09 03:51:23;;;;;;;39.30;21.03;;;4.60;97.80;;;;;;5072022;28;20030;-80
2022/12/09 03:53:53;;;;;;;35.93;19.67;;;4.40;97.80;;;;;;5071982;28;20021;-80
2022/12/09 03:56:24;;;;;;;38.03;20.13;;;4.40;97.80;;;;;;5071868;28;20017;-80
2022/12/09 03:58:53;;;;;;;36.63;20.57;;;4.40;97.80;;;;;;5072792;28;20016;-80
2022/12/09 04:01:22;;;;;;;36.23;20.50;;;4.40;97.80;;;;;;5072913;28;20473;-80
2022/12/09 04:03:51;;;;;;;35.10;19.67;;;4.40;97.80;;;;;;5072974;28;20021;-80
2022/12/09 04:06:16;;;;;;;32.77;16.97;;;4.30;97.80;;;;;;5071954;28;20047;-79
2022/12/09 04:08:42;;;;;;;32.63;18.53;;;4.30;97.80;;;;;;5071898;28;20476;-80
2022/12/09 04:11:07;;;;;;;38.17;20.70;;;4.30;97.70;;;;;;5075481;28;20062;-80
2022/12/09 04:13:33;;;;;;;33.87;18.37;;;4.30;97.80;;;;;;5075873;28;20012;-80
2022/12/09 04:15:59;;;;;;;34.63;18.47;;;4.20;97.80;;;;;;5075958;28;20051;-79
2022/12/09 04:18:24;;;;;;;35.53;19.83;;;4.20;97.70;;;;;;5059124;28;20484;-80
2022/12/09 04:20:50;;;;;;;33.00;18.13;;;4.20;97.70;;;;;;5076858;28;20029;-79
2022/12/09 04:23:16;;;;;;;36.63;20.33;;;4.20;97.70;;;;;;5075678;28;20111;-80
2022/12/09 04:25:41;;;;;;;33.57;19.10;;;4.20;97.70;;;;;;5059226;28;20021;-79
2022/12/09 04:28:07;;;;;;;34.07;19.10;;;4.10;97.70;;;;;;5075550;28;20358;-80
2022/12/09 04:30:33;;;;;;;34.00;18.90;;;4.10;97.70;;;;;;5076822;28;20099;-80
2022/12/09 04:32:59;;;;;;;33.10;18.70;;;4.10;97.70;;;;;;5075365;28;20028;-80
2022/12/09 04:35:26;;;;;;;37.40;19.27;;;4.10;97.60;;;;;;5076722;28;20027;-80
2022/12/09 04:37:51;;;;;;;39.03;20.37;;;4.00;97.60;;;;;;5076568;28;20021;-80
2022/12/09 04:40:18;;;;;;;38.73;18.77;;;4.00;97.50;;;;;;5075381;28;20650;-80
2022/12/09 04:42:44;;;;;;;34.87;18.43;;;3.90;97.50;;;;;;5075672;28;20458;-80
2022/12/09 04:45:10;;;;;;;37.00;19.47;;;4.00;97.40;;;;;;5076614;28;20024;-80
2022/12/09 04:47:35;;;;;;;35.87;19.57;;;3.80;97.40;;;;;;5075113;28;20043;-80
2022/12/09 04:50:01;;;;;;;39.27;20.13;;;3.80;97.40;;;;;;5075188;28;20024;-80
2022/12/09 04:52:27;;;;;;;33.57;18.50;;;3.80;97.40;;;;;;5075206;28;20484;-80
2022/12/09 04:54:52;;;;;;;33.37;17.83;;;3.60;97.40;;;;;;5075196;28;20082;-80
2022/12/09 04:57:18;;;;;;;42.43;20.87;;;3.70;97.60;;;;;;5074997;28;20051;-80
2022/12/09 04:59:44;;;;;;;35.33;18.93;;;3.70;97.70;;;;;;5076052;28;20028;-80
2022/12/09 05:02:10;;;;;;;35.37;18.07;;;3.70;97.80;;;;;;5058373;28;20391;-79
2022/12/09 05:04:35;;;;;;;32.37;18.37;;;3.70;97.90;;;;;;5076221;28;20025;-80
2022/12/09 05:07:01;;;;;;;36.60;18.53;;;3.70;98.00;;;;;;5076106;28;20021;-80
2022/12/09 05:09:26;;;;;;;35.93;19.23;;;3.70;98.00;;;;;;5074796;28;20028;-80
2022/12/09 05:11:52;;;;;;;33.20;17.37;;;3.60;98.10;;;;;;5075960;28;20170;-80
2022/12/09 05:14:18;;;;;;;34.33;18.47;;;3.70;98.20;;;;;;5074633;28;20031;-80
2022/12/09 05:16:43;;;;;;;35.13;17.80;;;3.70;98.20;;;;;;5075889;28;20113;-80
2022/12/09 05:19:09;;;;;;;36.83;18.47;;;3.70;98.30;;;;;;5075862;28;20033;-80
2022/12/09 05:21:35;;;;;;;33.83;17.43;;;3.80;98.30;;;;;;5074544;28;20384;-80
2022/12/09 05:24:02;;;;;;;32.27;17.27;;;3.80;98.40;;;;;;5075603;28;20035;-80
2022/12/09 05:26:27;;;;;;;39.20;18.07;;;3.80;98.40;;;;;;5075553;28;20021;-81
2022/12/09 05:28:53;;;;;;;35.70;18.97;;;3.80;98.50;;;;;;5074393;28;20111;-80
2022/12/09 05:31:21;;;;;;;35.20;18.27;;;3.80;98.50;;;;;;5057750;28;20025;-80
2022/12/09 05:33:47;;;;;;;31.53;18.00;;;3.80;98.60;;;;;;5074174;28;20031;-80
2022/12/09 05:36:15;;;;;;;33.03;18.67;;;3.90;98.60;;;;;;5079163;28;20020;-80
2022/12/09 05:38:41;;;;;;;34.80;18.23;;;3.90;98.60;;;;;;5095685;28;20028;-79
2022/12/09 05:41:07;;;;;;;31.67;17.07;;;3.90;98.60;;;;;;5095505;28;20035;-79
2022/12/09 05:43:34;;;;;;;30.80;17.00;;;4.00;98.60;;;;;;5095745;28;20102;-79
2022/12/09 05:46:00;;;;;;;32.03;17.73;;;4.00;98.60;;;;;;5095555;28;20028;-79
2022/12/09 05:48:26;;;;;;;32.50;16.37;;;3.90;98.60;;;;;;5095452;28;20043;-79
2022/12/09 05:50:59;;;;;;;30.00;17.23;;;4.00;98.60;;;;;;5095589;28;20020;-79
2022/12/09 05:53:25;;;;;;;29.45;16.15;;;4.00;98.70;;;;;;5095611;28;20024;-79
2022/12/09 05:55:51;;;;;;;32.53;17.63;;;4.00;98.70;;;;;;5094272;28;20499;-79
2022/12/09 05:58:17;;;;;;;34.30;17.30;;;4.00;98.80;;;;;;5095357;28;20073;-79
2022/12/09 06:00:42;;;;;;;32.03;15.80;;;4.00;98.80;;;;;;5095244;28;20032;-79
2022/12/09 06:03:08;;;;;;;29.53;16.93;;;4.10;98.80;;;;;;5094118;28;20029;-78
2022/12/09 06:05:35;;;;;;;31.63;16.83;;;4.00;98.70;;;;;;5077059;28;20357;-78
2022/12/09 06:08:00;;;;;;;32.00;16.60;;;4.00;98.70;;;;;;5095219;28;20024;-78
2022/12/09 06:10:26;;;;;;;33.57;15.97;;;4.00;98.70;;;;;;5093860;28;20061;-78
2022/12/09 06:12:56;;;;;;;31.57;16.70;;;4.00;98.50;;;;;;5077752;28;20393;-78
2022/12/09 06:15:22;;;;;;;29.73;16.37;;;4.00;98.40;;;;;;5077771;28;20024;-78
2022/12/09 06:17:48;;;;;;;32.57;17.67;;;3.90;98.40;;;;;;5069410;28;20096;-78
2022/12/09 06:20:14;;;;;;;29.47;16.00;;;4.00;98.40;;;;;;5088795;28;20488;-78
2022/12/09 06:22:39;;;;;;;30.10;16.30;;;3.90;98.30;;;;;;5076811;28;20479;-78
2022/12/09 06:25:05;;;;;;;31.00;14.97;;;3.90;98.30;;;;;;5094920;28;20024;-78
2022/12/09 06:27:31;;;;;;;27.93;15.13;;;3.80;98.20;;;;;;5093977;28;20024;-78
2022/12/09 06:29:56;;;;;;;32.73;16.17;;;3.80;98.20;;;;;;5093458;28;20027;-77
2022/12/09 06:32:22;;;;;;;28.73;14.97;;;3.80;98.10;;;;;;5094792;28;20020;-78
2022/12/09 06:34:48;;;;;;;32.13;15.80;;;3.70;97.90;;;;;;5092890;28;20028;-77
2022/12/09 06:37:17;;;;;;;33.93;16.83;;;3.60;97.80;;;;;;5093345;28;20073;-77
2022/12/09 06:39:42;;;;;;;30.23;16.70;;;3.50;97.70;;;;;;5081399;28;20028;-77
2022/12/09 06:42:08;;;;;;;30.83;16.97;;;3.60;97.70;;;;;;5076216;28;20020;-77
2022/12/09 06:44:34;;;;;;;32.57;16.30;;;3.30;97.60;;;;;;5091314;28;20086;-77
2022/12/09 06:47:00;;;;;;;32.37;16.03;;;3.30;97.60;;;;;;5093183;28;20483;-77
2022/12/09 06:49:26;;;;;;;32.67;16.33;;;3.20;97.50;;;;;;5094149;28;20044;-77
2022/12/09 06:51:51;;;;;;;29.77;16.37;;;3.20;97.50;;;;;;5093059;28;20028;-77
2022/12/09 06:54:17;;;;;;;28.70;14.80;;;3.10;97.50;;;;;;5094176;28;20020;-77
2022/12/09 06:56:43;;;;;;;34.30;16.50;;;3.00;97.50;;;;;;5093246;28;20077;-77
2022/12/09 06:59:09;;;;;;;31.43;15.37;;;2.90;97.50;;;;;;5092821;28;20024;-77
2022/12/09 07:01:35;;;;;;;28.53;14.83;;;2.90;97.50;;;;;;5094072;28;20385;-77
2022/12/09 07:04:03;;;;;;;30.03;15.50;;;2.80;97.50;;;;;;5094086;28;20020;-78
2022/12/09 07:06:30;;;;;;;32.60;15.97;;;2.80;97.50;;;;;;5094053;28;20036;-78
2022/12/09 07:08:58;;;;;;;33.60;16.17;;;2.70;97.50;;;;;;5092694;28;20063;-78
2022/12/09 07:11:24;;;;;;;34.67;16.87;;;2.60;97.50;;;;;;5092213;28;20039;-78
2022/12/09 07:13:50;;;;;;;33.50;15.93;;;2.60;97.60;;;;;;5092362;28;20028;-78
2022/12/09 07:16:16;;;;;;;31.63;16.57;;;2.50;97.70;;;;;;5091665;28;20099;-78
2022/12/09 07:18:42;;;;;;;34.80;17.43;;;2.50;97.70;;;;;;5092209;28;20028;-78
2022/12/09 07:21:10;;;;;;;34.70;16.60;;;2.50;97.60;;;;;;5091843;28;20042;-78
2022/12/09 07:23:36;;;;;;;36.03;16.70;;;2.40;97.60;;;;;;5093201;28;20019;-78
2022/12/09 07:26:04;;;;;;;29.53;15.47;;;2.30;97.60;;;;;;5091666;28;20020;-78
2022/12/09 07:28:30;;;;;;;32.43;14.70;;;2.30;97.60;;;;;;5092827;28;20107;-80
2022/12/09 07:30:56;;;;;;;38.13;16.43;;;2.30;97.70;;;;;;5091800;28;20032;-78
2022/12/09 07:33:22;;;;;;;31.80;15.60;;;2.30;97.70;;;;;;5092257;28;20036;-79
2022/12/09 07:35:47;;;;;;;38.07;17.47;;;2.20;97.70;;;;;;5093623;28;20063;-83
2022/12/09 07:38:13;;;;;;;34.67;16.47;;;2.20;97.80;;;;;;5092443;28;20036;-81
2022/12/09 07:40:39;;;;;;;34.60;17.13;;;2.20;97.90;;;;;;5092325;28;20085;-81
2022/12/09 07:43:06;;;;;;;33.10;15.93;;;2.10;98.00;;;;;;5075333;28;20028;-81
2022/12/09 07:45:35;;;;;;;34.83;16.87;;;2.10;98.00;;;;;;5074698;28;20028;-82
2022/12/09 07:48:01;;;;;;;34.07;16.50;;;2.00;98.10;;;;;;5091932;28;20043;-82
2022/12/09 07:50:26;;;;;;;35.43;16.70;;;2.00;98.10;;;;;;5092343;28;20032;-82
2022/12/09 07:52:52;;;;;;;33.23;16.40;;;2.00;98.10;;;;;;5075422;28;20028;-82
2022/12/09 07:55:18;;;;;;;39.37;17.87;;;1.90;98.20;;;;;;5075207;28;20031;-82
2022/12/09 07:57:44;;;;;;;37.00;15.87;;;1.90;98.30;;;;;;5075100;28;20077;-81
2022/12/09 08:00:10;;;;;;;33.87;16.53;;;1.90;98.30;;;;;;5091839;28;20036;-81
2022/12/09 08:02:36;;;;;;;34.93;16.73;;;2.00;98.50;;;;;;5092165;28;20024;-82
2022/12/09 08:05:01;;;;;;;35.83;17.43;;;2.00;98.70;;;;;;5075350;28;20523;-82
2022/12/09 08:07:27;;;;;;;34.30;16.00;;;2.00;98.80;;;;;;5091894;28;20107;-82
2022/12/09 08:09:55;;;;;;;35.10;16.70;;;2.10;99.30;;;;;;5075733;28;20028;-82
2022/12/09 08:12:21;;;;;;;38.80;16.37;;;2.10;99.10;;;;;;5093203;28;20052;-83
2022/12/09 08:14:47;;;;;;;35.87;16.23;;;2.10;99.20;;;;;;5075155;28;20032;-82
2022/12/09 08:17:12;;;;;;;39.93;19.30;;;2.10;99.20;;;;;;5093357;28;20016;-82
2022/12/09 08:19:38;;;;;;;38.67;17.93;;;2.20;99.30;;;;;;5075154;28;20036;-82
2022/12/09 08:22:03;;;;;;;43.57;19.13;;;2.30;99.50;;;;;;5091990;28;20039;-82
2022/12/09 08:24:29;;;;;;;41.93;17.77;;;2.20;99.60;;;;;;5092092;28;20032;-82
2022/12/09 08:26:55;;;;;;;39.63;19.13;;;2.30;99.90;;;;;;5075088;28;20028;-83
2022/12/09 08:29:20;;;;;;;45.90;20.07;;;2.40;99.90;;;;;;5075937;28;20034;-82
2022/12/09 08:31:46;;;;;;;40.27;19.90;;;2.50;99.90;;;;;;5093264;28;20034;-82
2022/12/09 08:34:13;;;;;;;43.43;20.77;;;2.50;99.90;;;;;;5092146;28;20028;-82
2022/12/09 08:36:39;;;;;;;41.77;20.17;;;2.60;99.90;;;;;;5093504;28;20035;-83
2022/12/09 08:39:05;;;;;;;38.00;19.53;;;2.70;99.90;;;;;;5093233;28;20059;-83
2022/12/09 08:41:36;;;;;;;46.07;20.87;;;2.80;99.90;;;;;;5075286;28;20024;-82
2022/12/09 08:44:01;;;;;;;44.10;20.67;;;2.80;99.90;;;;;;5092176;28;20024;-82
2022/12/09 08:46:27;;;;;;;48.00;23.20;;;2.90;99.90;;;;;;5094054;28;20099;-83
2022/12/09 08:48:53;;;;;;;46.70;23.97;;;2.90;99.90;;;;;;5074821;28;20441;-82
2022/12/09 08:51:18;;;;;;;50.80;24.40;;;3.00;99.90;;;;;;5074465;28;20032;-82
2022/12/09 08:53:44;;;;;;;44.37;22.60;;;3.10;99.90;;;;;;5074437;28;20099;-82
2022/12/09 08:56:11;;;;;;;46.80;23.67;;;3.10;99.90;;;;;;5075592;28;20024;-82
2022/12/09 08:58:37;;;;;;;49.80;22.73;;;3.20;99.90;;;;;;5096751;28;20485;-82
2022/12/09 09:01:03;;;;;;;50.17;24.97;;;3.20;99.90;;;;;;5095430;28;20365;-82
2022/12/09 09:03:30;;;;;;;47.40;23.07;;;3.30;99.90;;;;;;5095307;28;20101;-82
2022/12/09 09:06:01;;;;;;;46.17;23.63;;;3.30;99.90;;;;;;5095231;28;20020;-81
2022/12/09 09:08:26;;;;;;;49.00;24.77;;;3.40;99.90;;;;;;5095201;28;20035;-82
2022/12/09 09:10:53;;;;;;;45.70;23.77;;;3.40;99.90;;;;;;5096220;28;20028;-82
2022/12/09 09:13:19;;;;;;;49.90;23.50;;;3.50;99.90;;;;;;5095143;28;20021;-82
2022/12/09 09:15:44;;;;;;;43.07;21.60;;;3.50;99.90;;;;;;5078067;28;20038;-82
2022/12/09 09:18:10;;;;;;;34.20;18.23;;;3.60;99.90;;;;;;5078018;28;20111;-82
2022/12/09 09:20:36;;;;;;;32.97;16.73;;;3.60;99.90;;;;;;5094735;28;20050;-82
2022/12/09 09:23:01;;;;;;;38.30;19.77;;;3.70;99.90;;;;;;5077779;28;20032;-82
2022/12/09 09:25:27;;;;;;;39.23;19.77;;;3.70;99.90;;;;;;5096030;28;20024;-83
2022/12/09 09:27:52;;;;;;;31.77;16.30;;;3.70;99.90;;;;;;5094660;28;20116;-83
2022/12/09 09:30:18;;;;;;;26.97;13.83;;;3.80;99.90;;;;;;5077627;28;20078;-83
2022/12/09 09:32:44;;;;;;;34.87;16.60;;;3.80;99.90;;;;;;5077989;28;20038;-83
2022/12/09 09:35:09;;;;;;;36.83;18.50;;;3.80;99.90;;;;;;5077690;28;20036;-83
2022/12/09 09:37:35;;;;;;;40.53;20.43;;;3.90;99.90;;;;;;5077490;28;20032;-83
2022/12/09 09:40:01;;;;;;;45.10;19.27;;;3.90;99.90;;;;;;5077585;28;20369;-83
2022/12/09 09:42:34;;;;;;;36.83;19.13;;;3.90;99.90;;;;;;5077774;28;20119;-84
2022/12/09 09:45:04;;;;;;;39.97;19.80;;;3.90;99.90;;;;;;5094663;28;20495;-82
2022/12/09 09:47:38;;;;;;;37.67;20.07;;;3.90;99.90;;;;;;5094340;28;20044;-82
2022/12/09 09:50:24;;;;;;;;;;;3.90;99.80;;;;;;5096001;28;20035;-82
2022/12/09 09:52:52;;;;;;;37.07;18.63;;;4.00;99.90;;;;;;5095189;28;19904;-82
2022/12/09 09:55:26;;;;;;;34.70;17.43;;;3.90;99.90;;;;;;5094204;28;20557;-82
2022/12/09 09:58:04;;;;;;;30.98;16.88;;;4.00;99.90;;;;;;5094463;28;20395;-82
2022/12/09 10:00:37;;;;;;;35.03;16.13;;;4.00;99.50;;;;;;5093930;28;20057;-81
2022/12/09 10:03:11;;;;;;;28.30;15.97;;;4.10;99.60;;;;;;5094034;28;20484;-82
2022/12/09 10:05:40;;;;;;;28.25;14.93;;;4.10;99.60;;;;;;5094610;28;20039;-83
2022/12/09 10:08:14;;;;;;;29.30;14.87;;;4.20;99.70;;;;;;5093438;28;20468;-83
2022/12/09 10:10:58;;;;;;;28.37;15.60;;;4.20;99.60;;;;;;5095312;28;20028;-82
2022/12/09 10:13:59;;;;;;;30.20;15.83;;;4.30;99.50;;;;;;5094309;28;20035;-82
2022/12/09 10:16:46;;;;;;;30.73;15.43;;;4.40;99.40;;;;;;5094019;28;20024;-82
2022/12/09 10:19:15;;;;;;;33.30;16.40;;;4.50;99.30;;;;;;5093749;28;20039;-82
2022/12/09 10:21:42;;;;;;;30.37;16.90;;;4.50;98.90;;;;;;5093888;28;20028;-79
2022/12/09 10:24:26;;;;;;;30.10;16.67;;;4.60;99.00;;;;;;5095086;28;20032;-79
2022/12/09 10:27:13;;;;;;;26.67;14.20;;;4.80;99.20;;;;;;5093800;28;20114;-79
2022/12/09 10:30:01;;;;;;;29.47;14.77;;;5.10;99.70;;;;;;5093414;28;20153;-78
2022/12/09 10:32:33;;;;;;;25.70;14.07;;;5.60;99.90;;;;;;5093506;28;20024;-79
2022/12/09 10:34:59;;;;;;;28.57;15.03;;;6.00;99.90;;;;;;5094716;28;20020;-79
2022/12/09 10:37:34;;;;;;;26.30;15.27;;;6.30;99.90;;;;;;5093445;28;20024;-79
2022/12/09 10:40:06;;;;;;;27.07;15.33;;;6.70;99.90;;;;;;5093159;28;20480;-80
2022/12/09 10:45:26;;;;;;;24.45;14.45;;;7.30;99.70;;;;;;5094879;28;20089;-79
2022/12/09 10:47:52;;;;;;;24.80;13.87;;;7.70;99.30;;;;;;5076229;28;20048;-79
2022/12/09 10:50:44;;;;;;;24.30;13.63;;;8.00;98.60;;;;;;5076433;28;20032;-80
2022/12/09 10:53:14;;;;;;;23.60;13.37;;;8.10;97.60;;;;;;5091737;28;20032;-80
2022/12/09 10:55:43;;;;;;;29.70;14.00;;;8.20;97.30;;;;;;5093009;28;20024;-79
2022/12/09 10:58:30;;;;;;;28.17;15.23;;;8.30;96.50;;;;;;5094242;28;20118;-80
2022/12/09 11:01:08;;;;;;;26.30;13.93;;;8.20;95.60;;;;;;5092779;28;20036;-83
2022/12/09 11:03:37;;;;;;;24.40;14.60;;;8.10;95.10;;;;;;5092972;28;20056;-83
2022/12/09 11:06:25;;;;;;;24.47;14.00;;;8.20;94.50;;;;;;5094165;28;20052;-83
2022/12/09 11:08:56;;;;;;;26.73;15.60;;;8.00;93.90;;;;;;5092798;28;20020;-82
2022/12/09 11:11:43;;;;;;;29.17;16.27;;;8.00;93.10;;;;;;5092431;28;20598;-83
2022/12/09 11:14:33;;;;;;;26.30;15.57;;;7.90;92.40;;;;;;5092858;28;20453;-83
2022/12/09 11:17:23;;;;;;;26.93;16.07;;;7.90;91.20;;;;;;5092850;28;20055;-83
2022/12/09 11:19:51;;;;;;;33.43;16.70;;;7.80;91.20;;;;;;5092685;28;20020;-82
2022/12/09 11:22:34;;;;;;;28.80;15.37;;;7.80;90.90;;;;;;5092354;28;20028;-82
2022/12/09 11:25:28;;;;;;;29.00;15.43;;;7.80;90.40;;;;;;5092886;28;20081;-82
2022/12/09 11:28:00;;;;;;;25.27;13.75;;;7.60;90.10;;;;;;5089909;28;20046;-82
2022/12/09 11:30:47;;;;;;;26.20;14.10;;;7.50;90.10;;;;;;5092370;28;20050;-79
2022/12/09 11:33:13;;;;;;;25.73;13.87;;;7.30;90.00;;;;;;5092438;28;20091;-79
2022/12/09 11:35:44;;;;;;;28.40;15.00;;;7.10;89.60;;;;;;5092230;28;20476;-79
2022/12/09 11:38:29;;;;;;;27.67;14.97;;;7.10;89.70;;;;;;5092504;28;20024;-79
2022/12/09 11:41:00;;;;;;;31.92;16.05;;;6.90;89.80;;;;;;5099458;28;20025;-79
2022/12/09 11:43:48;;;;;;;26.90;14.97;;;6.80;89.30;;;;;;5098430;28;20024;-79
2022/12/09 11:46:27;;;;;;;30.80;15.23;;;6.70;88.90;;;;;;5090718;28;20754;-79
2022/12/09 11:49:11;;;;;;;27.07;14.87;;;6.60;89.10;;;;;;5086650;28;20162;-79
2022/12/09 11:51:40;;;;;;;27.60;15.65;;;6.50;89.20;;;;;;5091527;28;20020;-79
2022/12/09 11:54:19;;;;;;;29.43;15.67;;;6.40;88.70;;;;;;5089882;28;20020;-78
2022/12/09 11:56:46;;;;;;;30.37;14.87;;;6.30;88.80;;;;;;5084921;28;20392;-79
2022/12/09 11:59:28;;;;;;;25.33;14.57;;;6.40;88.30;;;;;;5075508;28;20024;-79
2022/12/09 12:02:13;;;;;;;29.23;15.70;;;6.30;87.70;;;;;;5088267;28;20488;-79
2022/12/09 12:04:57;;;;;;;27.70;14.13;;;6.30;87.00;;;;;;5071878;28;20376;-78
2022/12/09 12:07:40;;;;;;;27.52;15.25;;;6.20;85.80;;;;;;5071941;28;20067;-79
2022/12/09 12:10:17;;;;;;;25.27;13.80;;;6.10;86.10;;;;;;5072082;28;20431;-79
2022/12/09 12:13:12;;;;;;;27.57;14.00;;;6.10;86.60;;;;;;5073117;28;20021;-80
2022/12/09 12:16:04;;;;;;;26.07;14.20;;;6.00;87.00;;;;;;5088741;28;20021;-79
2022/12/09 12:18:40;;;;;;;24.60;13.23;;;6.00;87.00;;;;;;5071714;28;20028;-80
2022/12/09 12:21:27;;;;;;;29.13;13.40;;;6.00;87.40;;;;;;5072896;28;20020;-79
2022/12/09 12:24:13;;;;;;;29.73;14.73;;;6.00;87.50;;;;;;5071857;28;20470;-79
2022/12/09 12:27:21;;;;;;;24.73;12.83;;;6.20;87.10;;;;;;5072101;28;20104;-79
2022/12/09 12:29:57;;;;;;;28.80;15.03;;;6.00;86.90;;;;;;5030830;28;20120;-79
2022/12/09 12:32:29;;;;;;;27.40;15.10;;;6.00;86.40;;;;;;5066256;28;20040;-79
2022/12/09 12:35:19;;;;;;;29.47;13.97;;;5.90;86.50;;;;;;5075597;28;20033;-79
2022/12/09 12:38:00;;;;;;;27.07;13.80;;;5.80;86.40;;;;;;5075503;28;20086;-79
2022/12/09 12:40:37;;;;;;;26.43;14.40;;;5.80;86.20;;;;;;5075549;28;20035;-79
2022/12/09 12:46:31;;;;;;;24.80;13.52;;;5.70;86.90;;;;;;5075184;28;20030;-79
2022/12/09 12:49:03;;;;;;;30.40;15.10;;;5.70;87.00;;;;;;5094739;28;20094;-79
2022/12/09 12:51:39;;;;;;;27.63;14.70;;;5.70;87.00;;;;;;5095352;28;20073;-79
2022/12/09 12:54:20;;;;;;;28.20;13.73;;;5.70;87.00;;;;;;5095028;28;20035;-79
2022/12/09 12:56:56;;;;;;;23.20;13.20;;;5.60;86.90;;;;;;5110795;28;20028;-77
2022/12/09 12:59:40;;;;;;;25.53;13.03;;;5.60;87.00;;;;;;5093945;28;20059;-78